Time;durP1;ratioP1;P1;durP2;ratioP2;P2;SDS_P1;SDS_P2;PMS_P1;PMS_P2;Temp;Humidity;BMP_temperature;BMP_pressure;BME280_temperature;BME280_humidity;BME280_pressure;Samples;Min_cycle;Max_cycle;Signal;HPM_P1;HPM_P2
2021/08/26 00:06:46;;;;;;;2.80;1.60;;;17.30;99.90;;;;;;5031026;28;20107;-37
2021/08/26 00:09:15;;;;;;;2.75;1.75;;;17.40;99.90;;;;;;5031060;28;20461;-40
2021/08/26 00:11:44;;;;;;;1.98;1.60;;;17.30;99.90;;;;;;5030531;28;20026;-40
2021/08/26 00:14:10;;;;;;;3.58;1.50;;;17.30;99.90;;;;;;5031022;28;20057;-36
2021/08/26 00:16:47;;;;;;;3.38;1.50;;;17.30;99.90;;;;;;5031312;28;20072;-37
2021/08/26 00:19:13;;;;;;;3.85;1.75;;;17.30;99.90;;;;;;5030930;28;20474;-37
2021/08/26 00:21:40;;;;;;;4.45;2.38;;;17.30;99.90;;;;;;5031093;28;20021;-36
2021/08/26 00:24:06;;;;;;;3.00;1.70;;;17.20;99.90;;;;;;5031255;28;20361;-36
2021/08/26 00:26:32;;;;;;;2.20;1.30;;;17.20;99.90;;;;;;5029671;28;20477;-38
2021/08/26 00:28:59;;;;;;;4.22;2.05;;;17.20;99.90;;;;;;5030285;28;20485;-37
2021/08/26 00:31:25;;;;;;;3.78;1.60;;;17.20;99.90;;;;;;5029756;28;20152;-38
2021/08/26 00:34:11;;;;;;;4.35;1.70;;;17.10;99.90;;;;;;5028948;28;20096;-38
2021/08/26 00:36:36;;;;;;;2.42;1.67;;;17.10;99.90;;;;;;5029802;28;20044;-38
2021/08/26 00:39:05;;;;;;;2.08;1.08;;;17.10;99.90;;;;;;5030331;28;20474;-41
2021/08/26 00:41:31;;;;;;;3.03;1.80;;;17.10;99.90;;;;;;5029966;28;20022;-39
2021/08/26 00:44:00;;;;;;;3.72;1.60;;;17.20;99.90;;;;;;5030782;28;20075;-39
2021/08/26 00:46:26;;;;;;;3.17;1.58;;;17.10;99.90;;;;;;5029837;28;20063;-40
2021/08/26 00:48:51;;;;;;;3.88;1.48;;;17.10;99.90;;;;;;5028138;28;20068;-40
2021/08/26 00:51:17;;;;;;;2.05;1.30;;;17.10;99.90;;;;;;5014045;28;20026;-41
2021/08/26 00:53:43;;;;;;;5.35;1.60;;;17.20;99.90;;;;;;5029832;28;20329;-41
2021/08/26 00:56:18;;;;;;;4.88;1.67;;;17.10;99.90;;;;;;5028529;28;20029;-39
2021/08/26 00:59:01;;;;;;;3.38;1.50;;;17.10;99.90;;;;;;5028916;28;20056;-41
2021/08/26 01:01:37;;;;;;;4.43;1.65;;;17.10;99.90;;;;;;5029485;28;20021;-37
2021/08/26 01:04:21;;;;;;;3.72;1.77;;;17.10;99.90;;;;;;5027327;28;20033;-39
2021/08/26 01:06:50;;;;;;;4.97;1.88;;;17.10;99.90;;;;;;5028711;28;20038;-38
2021/08/26 01:09:20;;;;;;;3.00;1.70;;;17.10;99.90;;;;;;5029814;28;20045;-36
2021/08/26 01:11:47;;;;;;;5.13;1.88;;;17.10;99.90;;;;;;5029002;28;20509;-40
2021/08/26 01:14:15;;;;;;;3.95;1.80;;;17.10;99.90;;;;;;5028696;28;20021;-39
2021/08/26 01:16:40;;;;;;;4.13;1.77;;;17.10;99.90;;;;;;5028407;28;20468;-38
2021/08/26 01:19:06;;;;;;;9.07;2.22;;;17.10;99.90;;;;;;5029147;28;20069;-35
2021/08/26 01:21:33;;;;;;;7.65;2.58;;;17.10;99.90;;;;;;5029488;28;20022;-38
2021/08/26 01:24:02;;;;;;;3.42;1.95;;;17.00;99.90;;;;;;5028831;28;20603;-36
2021/08/26 01:26:35;;;;;;;6.20;2.13;;;17.00;99.90;;;;;;5029570;28;20033;-38
2021/08/26 01:29:03;;;;;;;5.18;2.40;;;16.90;99.90;;;;;;5028343;28;20056;-38
2021/08/26 01:31:30;;;;;;;7.15;2.28;;;16.80;99.90;;;;;;5030187;28;20037;-42
2021/08/26 01:34:00;;;;;;;8.77;2.50;;;16.90;99.90;;;;;;5028792;28;20033;-38
2021/08/26 01:36:27;;;;;;;8.80;2.60;;;16.80;99.90;;;;;;5028759;28;20421;-40
2021/08/26 01:38:52;;;;;;;5.60;2.13;;;16.80;99.90;;;;;;5028139;28;20037;-40
2021/08/26 01:41:34;;;;;;;5.13;2.00;;;16.80;99.90;;;;;;5028790;28;20095;-40
2021/08/26 01:44:00;;;;;;;5.60;2.38;;;16.80;99.90;;;;;;5027570;28;20029;-41
2021/08/26 01:46:25;;;;;;;4.95;2.22;;;16.80;99.90;;;;;;5029350;28;20397;-40
2021/08/26 01:48:51;;;;;;;8.73;2.55;;;16.80;99.90;;;;;;5027822;28;20029;-41
2021/08/26 01:51:16;;;;;;;8.15;2.70;;;16.70;99.90;;;;;;5028110;28;20056;-36
2021/08/26 01:53:42;;;;;;;5.88;2.47;;;16.60;99.90;;;;;;5028499;28;20709;-41
2021/08/26 01:56:10;;;;;;;4.95;2.17;;;16.60;99.90;;;;;;5028308;28;20025;-37
2021/08/26 01:58:35;;;;;;;7.90;2.78;;;16.60;99.90;;;;;;5028568;28;20032;-40
2021/08/26 02:01:01;;;;;;;6.00;2.17;;;16.70;99.90;;;;;;5028411;28;20018;-38
2021/08/26 02:03:26;;;;;;;4.40;2.17;;;16.70;99.90;;;;;;5028588;28;20040;-40
2021/08/26 02:05:52;;;;;;;7.93;2.67;;;16.70;99.90;;;;;;5028080;28;20088;-37
2021/08/26 02:08:20;;;;;;;6.85;2.53;;;16.70;99.90;;;;;;5029270;28;20032;-39
2021/08/26 02:10:46;;;;;;;7.65;2.78;;;16.70;99.90;;;;;;5027976;28;20037;-38
2021/08/26 02:13:17;;;;;;;7.75;2.80;;;16.60;99.90;;;;;;5029641;28;20022;-38
2021/08/26 02:15:43;;;;;;;5.72;2.45;;;16.60;99.90;;;;;;5028878;28;20053;-40
2021/08/26 02:18:08;;;;;;;9.38;3.15;;;16.60;99.90;;;;;;5028387;28;20385;-35
2021/08/26 02:20:34;;;;;;;9.23;2.40;;;16.60;99.90;;;;;;5033488;28;20034;-40
2021/08/26 02:22:59;;;;;;;6.93;2.72;;;16.60;99.90;;;;;;5032493;28;20018;-40
2021/08/26 02:25:25;;;;;;;6.97;3.15;;;16.60;99.90;;;;;;5032250;28;20025;-39
2021/08/26 02:27:50;;;;;;;8.27;2.83;;;16.60;99.90;;;;;;5032552;28;20087;-39
2021/08/26 02:30:16;;;;;;;8.25;3.08;;;16.50;99.90;;;;;;5032449;28;20025;-35
2021/08/26 02:32:44;;;;;;;7.65;3.08;;;16.50;99.90;;;;;;5032405;28;20191;-42
2021/08/26 02:35:10;;;;;;;8.25;3.03;;;16.50;99.90;;;;;;5032694;28;20048;-41
2021/08/26 02:37:36;;;;;;;9.73;3.15;;;16.50;99.90;;;;;;5032715;28;20470;-42
2021/08/26 02:40:02;;;;;;;10.13;3.42;;;16.50;99.90;;;;;;5031358;28;20046;-40
2021/08/26 02:42:29;;;;;;;9.68;3.40;;;16.40;99.90;;;;;;5032237;28;20437;-41
2021/08/26 02:44:55;;;;;;;7.15;2.70;;;16.40;99.90;;;;;;5032005;28;20104;-41
2021/08/26 02:47:20;;;;;;;8.35;3.33;;;16.40;99.90;;;;;;5032121;28;20535;-42
2021/08/26 02:49:46;;;;;;;9.57;3.47;;;16.50;99.90;;;;;;5031271;28;20101;-39
2021/08/26 02:52:11;;;;;;;11.70;3.35;;;16.40;99.90;;;;;;5031447;28;20478;-38
2021/08/26 02:54:37;;;;;;;7.68;2.90;;;16.40;99.90;;;;;;5031294;28;20032;-39
2021/08/26 02:57:03;;;;;;;11.10;4.53;;;16.50;99.90;;;;;;5031345;28;20505;-38
2021/08/26 02:59:28;;;;;;;9.55;3.75;;;16.40;99.90;;;;;;5031466;28;20036;-40
2021/08/26 03:01:54;;;;;;;12.85;3.63;;;16.30;99.90;;;;;;5030802;28;20022;-42
2021/08/26 03:04:19;;;;;;;12.52;3.83;;;16.20;99.90;;;;;;5032439;28;20029;-39
2021/08/26 03:06:45;;;;;;;8.77;3.80;;;16.10;99.90;;;;;;5031690;28;20673;-41
2021/08/26 03:09:30;;;;;;;14.00;4.07;;;16.00;99.90;;;;;;5031231;28;20077;-39
2021/08/26 03:11:59;;;;;;;9.57;3.40;;;16.00;99.90;;;;;;5031432;28;20524;-39
2021/08/26 03:14:24;;;;;;;10.82;3.22;;;15.90;99.90;;;;;;5031762;28;20052;-39
2021/08/26 03:16:50;;;;;;;10.10;3.40;;;16.00;99.90;;;;;;5031301;28;20732;-40
2021/08/26 03:19:18;;;;;;;9.20;3.53;;;16.00;99.90;;;;;;5032427;28;20037;-41
2021/08/26 03:21:43;;;;;;;10.80;3.90;;;16.00;99.90;;;;;;5031432;28;20101;-40
2021/08/26 03:24:09;;;;;;;11.57;3.67;;;15.90;99.90;;;;;;5032141;28;20100;-42
2021/08/26 03:26:35;;;;;;;9.00;3.67;;;16.00;99.90;;;;;;5032091;28;20025;-42
2021/08/26 03:29:00;;;;;;;7.18;2.80;;;16.00;99.90;;;;;;5030459;28;20037;-37
2021/08/26 03:31:26;;;;;;;9.63;3.20;;;16.00;99.90;;;;;;5031400;28;20056;-39
2021/08/26 03:33:51;;;;;;;9.70;2.97;;;16.10;99.90;;;;;;5031227;28;20018;-39
2021/08/26 03:36:26;;;;;;;10.82;3.63;;;16.10;99.90;;;;;;5031104;28;20531;-39
2021/08/26 03:38:52;;;;;;;9.45;3.50;;;16.10;99.90;;;;;;5031084;28;20456;-41
2021/08/26 03:41:18;;;;;;;8.02;3.30;;;16.20;99.90;;;;;;5032253;28;20481;-40
2021/08/26 03:43:47;;;;;;;7.45;3.63;;;16.20;99.90;;;;;;5030842;28;20441;-42
2021/08/26 03:46:18;;;;;;;9.02;3.33;;;16.30;99.90;;;;;;5031949;28;20398;-40
2021/08/26 03:48:44;;;;;;;12.15;3.75;;;16.30;99.90;;;;;;5030446;28;20033;-37
2021/08/26 03:51:10;;;;;;;8.98;2.80;;;16.20;99.90;;;;;;5030488;28;20048;-40
2021/08/26 03:53:35;;;;;;;8.95;2.90;;;16.10;99.90;;;;;;5031234;28;20028;-39
2021/08/26 03:56:01;;;;;;;8.75;3.22;;;16.10;99.90;;;;;;5030654;28;20026;-35
2021/08/26 03:58:30;;;;;;;9.20;3.10;;;16.10;99.90;;;;;;5030157;28;20523;-42
2021/08/26 04:00:55;;;;;;;9.70;3.70;;;16.20;99.90;;;;;;5030072;28;20025;-40
2021/08/26 04:03:24;;;;;;;10.27;3.35;;;16.20;99.90;;;;;;5030337;28;20029;-41
2021/08/26 04:05:49;;;;;;;12.18;3.08;;;16.20;99.90;;;;;;5030107;28;20071;-40
2021/08/26 04:08:15;;;;;;;7.75;2.97;;;16.20;99.90;;;;;;5031319;28;20021;-41
2021/08/26 04:10:40;;;;;;;12.38;3.92;;;16.20;99.90;;;;;;5029671;28;20049;-40
2021/08/26 04:13:06;;;;;;;8.43;3.25;;;16.20;99.90;;;;;;5029984;28;20451;-39
2021/08/26 04:15:31;;;;;;;5.68;2.92;;;16.10;99.90;;;;;;5030184;28;20083;-38
2021/08/26 04:17:57;;;;;;;6.20;2.90;;;16.10;99.90;;;;;;5029014;28;20037;-38
2021/08/26 04:20:22;;;;;;;11.95;3.70;;;16.10;99.90;;;;;;5030367;28;20117;-41
2021/08/26 04:22:51;;;;;;;7.63;2.88;;;16.10;99.90;;;;;;5029891;28;20380;-41
2021/08/26 04:25:16;;;;;;;8.32;2.95;;;16.10;99.90;;;;;;5029475;28;20129;-42
2021/08/26 04:27:42;;;;;;;8.55;2.50;;;16.00;99.90;;;;;;5029659;28;20104;-40
2021/08/26 04:30:11;;;;;;;13.63;3.60;;;16.00;99.90;;;;;;5029486;28;20029;-42
2021/08/26 04:32:36;;;;;;;11.43;3.08;;;16.00;99.90;;;;;;5028952;28;20495;-39
2021/08/26 04:35:02;;;;;;;5.88;2.40;;;15.90;99.90;;;;;;5029983;28;20037;-41
2021/08/26 04:37:29;;;;;;;11.88;3.35;;;15.90;99.90;;;;;;5030784;28;20037;-40
2021/08/26 04:39:55;;;;;;;9.13;3.20;;;15.90;99.90;;;;;;5029231;28;20037;-37
2021/08/26 04:42:20;;;;;;;8.90;3.10;;;15.90;99.90;;;;;;5029439;28;20032;-41
2021/08/26 04:44:46;;;;;;;11.50;3.03;;;15.80;99.90;;;;;;5030153;28;20025;-40
2021/08/26 04:47:11;;;;;;;12.05;3.28;;;15.80;99.90;;;;;;5030004;28;20018;-40
2021/08/26 04:49:37;;;;;;;9.73;2.90;;;15.80;99.90;;;;;;5030164;28;20017;-38
2021/08/26 04:52:04;;;;;;;10.45;2.70;;;15.80;99.90;;;;;;5030648;28;20551;-40
2021/08/26 04:54:29;;;;;;;5.63;2.38;;;15.80;99.90;;;;;;5029342;28;20026;-41
2021/08/26 04:56:55;;;;;;;8.10;2.95;;;15.80;99.90;;;;;;5029426;28;20481;-41
2021/08/26 04:59:20;;;;;;;8.75;3.00;;;15.80;99.90;;;;;;5029883;28;20056;-40
2021/08/26 05:01:46;;;;;;;7.90;2.70;;;15.80;99.90;;;;;;5028618;28;20025;-39
2021/08/26 05:04:20;;;;;;;10.32;3.10;;;15.90;99.90;;;;;;5029195;28;20037;-38
2021/08/26 05:06:46;;;;;;;8.85;2.83;;;15.90;99.90;;;;;;5027153;28;20033;-41
2021/08/26 05:09:11;;;;;;;8.23;2.85;;;15.90;99.90;;;;;;5029141;28;20381;-41
2021/08/26 05:11:37;;;;;;;7.10;2.15;;;16.00;99.90;;;;;;5029386;28;20367;-38
2021/08/26 05:14:02;;;;;;;7.10;2.70;;;16.00;99.90;;;;;;5029354;28;20128;-39
2021/08/26 05:16:28;;;;;;;9.10;2.88;;;16.00;99.90;;;;;;5028668;28;20481;-39
2021/08/26 05:18:54;;;;;;;9.35;3.20;;;16.00;99.90;;;;;;5029147;28;20021;-39
2021/08/26 05:21:19;;;;;;;10.18;2.50;;;16.00;99.90;;;;;;5029308;28;20053;-36
2021/08/26 05:23:45;;;;;;;9.00;2.90;;;16.00;99.90;;;;;;5029327;28;20017;-36
2021/08/26 05:26:13;;;;;;;8.38;2.50;;;16.00;99.90;;;;;;5029567;28;20615;-39
2021/08/26 05:28:42;;;;;;;8.20;2.85;;;16.00;99.90;;;;;;5029318;28;20017;-41
2021/08/26 05:31:10;;;;;;;9.02;2.67;;;16.10;99.90;;;;;;5029320;28;20156;-38
2021/08/26 05:33:35;;;;;;;11.25;3.13;;;16.00;99.90;;;;;;5030075;28;20026;-39
2021/08/26 05:36:01;;;;;;;9.43;2.80;;;16.10;99.90;;;;;;5028536;28;20029;-41
2021/08/26 05:38:27;;;;;;;11.05;2.85;;;16.10;99.90;;;;;;5029274;28;20017;-39
2021/08/26 05:40:55;;;;;;;9.32;2.60;;;16.10;99.90;;;;;;5028640;28;20038;-39
2021/08/26 05:43:20;;;;;;;9.63;2.85;;;16.10;99.90;;;;;;5024830;28;20017;-40
2021/08/26 05:45:46;;;;;;;8.65;2.67;;;16.10;99.90;;;;;;5026171;28;20032;-38
2021/08/26 05:48:12;;;;;;;10.32;2.80;;;16.10;99.90;;;;;;5028058;28;20049;-35
2021/08/26 05:50:37;;;;;;;8.68;2.70;;;16.10;99.90;;;;;;5028328;28;20104;-37
2021/08/26 05:53:03;;;;;;;8.90;2.65;;;16.10;99.90;;;;;;5028894;28;20469;-37
2021/08/26 05:55:29;;;;;;;7.47;2.15;;;16.10;99.90;;;;;;5027936;28;20624;-40
2021/08/26 05:57:54;;;;;;;7.38;2.40;;;16.20;99.90;;;;;;5027792;28;20559;-36
2021/08/26 06:00:20;;;;;;;7.45;2.30;;;16.20;99.90;;;;;;5028421;28;20025;-40
2021/08/26 06:02:45;;;;;;;8.23;2.63;;;16.30;99.90;;;;;;5027403;28;20358;-34
2021/08/26 06:05:11;;;;;;;6.63;2.28;;;16.30;99.90;;;;;;5028392;28;20029;-37
2021/08/26 06:07:38;;;;;;;9.98;2.80;;;16.40;99.90;;;;;;5027847;28;20014;-40
2021/08/26 06:10:07;;;;;;;9.18;2.53;;;16.40;99.90;;;;;;5027517;28;20552;-43
2021/08/26 06:12:37;;;;;;;10.60;2.65;;;16.40;99.90;;;;;;5027754;28;20040;-42
2021/08/26 06:15:02;;;;;;;8.02;2.40;;;16.40;99.90;;;;;;5027166;28;20464;-41
2021/08/26 06:17:31;;;;;;;9.93;3.30;;;16.40;99.90;;;;;;5031896;28;20053;-42
2021/08/26 06:20:00;;;;;;;4.95;1.80;;;16.40;99.90;;;;;;5028230;28;20056;-41
2021/08/26 06:22:38;;;;;;;8.98;2.20;;;16.50;99.90;;;;;;5034750;28;20010;-34
2021/08/26 06:25:05;;;;;;;9.05;2.85;;;16.50;99.90;;;;;;5037549;28;20100;-35
2021/08/26 06:27:30;;;;;;;7.78;2.35;;;16.50;99.90;;;;;;5039973;28;20033;-38
2021/08/26 06:29:56;;;;;;;7.45;2.28;;;16.50;99.90;;;;;;5027604;28;20048;-40
2021/08/26 06:32:21;;;;;;;11.27;2.63;;;16.50;99.90;;;;;;5028540;28;20052;-41
2021/08/26 06:34:47;;;;;;;7.47;2.60;;;16.60;99.90;;;;;;5028146;28;20021;-38
2021/08/26 06:37:12;;;;;;;8.43;2.10;;;16.60;99.90;;;;;;5028973;28;20021;-40
2021/08/26 06:39:38;;;;;;;8.88;2.80;;;16.60;99.90;;;;;;5028268;28;20123;-38
2021/08/26 06:42:04;;;;;;;9.77;2.50;;;16.60;99.90;;;;;;5028544;28;20013;-41
2021/08/26 06:44:29;;;;;;;9.57;2.75;;;16.60;99.90;;;;;;5028182;28;20032;-38
2021/08/26 06:46:55;;;;;;;9.85;2.60;;;16.70;99.90;;;;;;5043225;28;20461;-38
2021/08/26 06:49:22;;;;;;;5.15;2.42;;;16.70;99.90;;;;;;5037258;28;20033;-39
2021/08/26 06:51:49;;;;;;;7.10;2.30;;;16.80;99.90;;;;;;5032868;28;20026;-39
2021/08/26 06:54:15;;;;;;;6.75;2.00;;;16.90;99.90;;;;;;5028989;28;20113;-38
2021/08/26 06:56:40;;;;;;;6.50;2.00;;;17.00;99.90;;;;;;5028576;28;20108;-38
2021/08/26 06:59:06;;;;;;;7.78;1.80;;;16.90;99.90;;;;;;5027852;28;20044;-36
2021/08/26 07:01:31;;;;;;;7.00;2.17;;;16.90;99.90;;;;;;5029086;28;20434;-37
2021/08/26 07:03:57;;;;;;;8.57;2.33;;;16.90;99.90;;;;;;5027909;28;20025;-39
2021/08/26 07:06:22;;;;;;;6.00;2.10;;;17.00;99.90;;;;;;5031283;28;20030;-35
2021/08/26 07:08:48;;;;;;;9.75;2.65;;;17.00;99.90;;;;;;5031226;28;20017;-40
2021/08/26 07:11:22;;;;;;;6.68;1.90;;;17.00;99.90;;;;;;5032401;28;20497;-40
2021/08/26 07:13:57;;;;;;;11.27;2.33;;;16.90;99.90;;;;;;5030689;28;20180;-39
2021/08/26 07:16:23;;;;;;;8.05;1.90;;;16.90;99.90;;;;;;5031212;28;20099;-38
2021/08/26 07:18:54;;;;;;;6.05;2.10;;;16.90;99.90;;;;;;5033630;28;20470;-36
2021/08/26 07:21:29;;;;;;;5.03;2.07;;;16.90;99.90;;;;;;5030707;28;20071;-38
2021/08/26 07:23:54;;;;;;;6.53;1.92;;;16.80;99.90;;;;;;5030789;28;20057;-39
2021/08/26 07:26:20;;;;;;;8.27;2.30;;;16.70;99.90;;;;;;5030832;28;20075;-41
2021/08/26 07:28:47;;;;;;;6.82;1.75;;;16.70;99.90;;;;;;5030374;28;20029;-38
2021/08/26 07:31:15;;;;;;;5.53;1.83;;;16.70;99.90;;;;;;5031511;28;20072;-40
2021/08/26 07:33:41;;;;;;;6.70;1.85;;;16.70;99.90;;;;;;5031249;28;20049;-37
2021/08/26 07:36:06;;;;;;;7.00;1.77;;;16.70;99.90;;;;;;5032328;28;20068;-41
2021/08/26 07:38:32;;;;;;;6.25;1.92;;;16.80;99.90;;;;;;5031970;28;20046;-40
2021/08/26 07:40:57;;;;;;;4.85;1.50;;;16.70;99.90;;;;;;5029713;28;20068;-41
2021/08/26 07:43:25;;;;;;;4.82;1.52;;;16.80;99.90;;;;;;5031544;28;20594;-41
2021/08/26 07:45:52;;;;;;;6.07;2.00;;;16.80;99.90;;;;;;5028980;28;20388;-39
2021/08/26 07:48:18;;;;;;;5.22;1.67;;;16.80;99.90;;;;;;5030108;28;20022;-38
2021/08/26 07:50:44;;;;;;;4.97;1.77;;;16.80;99.90;;;;;;5031115;28;20488;-41
2021/08/26 07:53:10;;;;;;;6.65;1.85;;;16.80;99.90;;;;;;5031260;28;20021;-36
2021/08/26 07:55:36;;;;;;;5.90;1.88;;;16.80;99.90;;;;;;5030693;28;20032;-40
2021/08/26 07:58:04;;;;;;;8.23;2.15;;;16.90;99.90;;;;;;5030950;28;20017;-37
2021/08/26 08:00:29;;;;;;;4.22;1.73;;;17.00;99.90;;;;;;5037161;28;20701;-38
2021/08/26 08:02:55;;;;;;;5.25;1.90;;;17.10;99.90;;;;;;5037138;28;20021;-39
2021/08/26 08:05:21;;;;;;;4.57;1.35;;;17.10;99.90;;;;;;5037498;28;20018;-37
2021/08/26 08:07:46;;;;;;;7.40;2.10;;;17.30;99.90;;;;;;5030708;28;20083;-40
2021/08/26 08:10:15;;;;;;;9.55;2.20;;;17.40;99.90;;;;;;5030936;28;20167;-38
2021/08/26 08:12:42;;;;;;;8.75;2.28;;;17.50;99.90;;;;;;5028494;28;20026;-38
2021/08/26 08:15:09;;;;;;;9.23;2.38;;;17.50;99.90;;;;;;5010720;28;20180;-40
2021/08/26 08:17:36;;;;;;;8.25;2.47;;;17.50;99.90;;;;;;5023934;28;20029;-37
2021/08/26 08:20:08;;;;;;;5.55;1.90;;;17.60;99.90;;;;;;5030627;28;20492;-39
2021/08/26 08:22:37;;;;;;;4.88;1.92;;;17.60;99.90;;;;;;5030637;28;20017;-40
2021/08/26 08:25:04;;;;;;;8.18;2.47;;;17.80;99.90;;;;;;5029944;28;20061;-42
2021/08/26 08:27:30;;;;;;;7.50;2.45;;;17.90;99.90;;;;;;5030475;28;20461;-38
2021/08/26 08:29:55;;;;;;;8.90;2.30;;;17.90;99.90;;;;;;5030272;28;20032;-38
2021/08/26 08:32:21;;;;;;;8.00;2.30;;;17.50;99.90;;;;;;5029773;28;20021;-40
2021/08/26 08:34:46;;;;;;;6.47;2.20;;;17.10;99.90;;;;;;5032213;28;20100;-37
2021/08/26 08:37:12;;;;;;;5.75;1.83;;;16.90;99.90;;;;;;5035925;28;20637;-41
2021/08/26 08:39:37;;;;;;;7.00;2.42;;;16.90;99.90;;;;;;5032621;28;20037;-38
2021/08/26 08:42:03;;;;;;;5.40;2.10;;;16.90;99.90;;;;;;5038506;28;20060;-42
2021/08/26 08:44:29;;;;;;;6.32;1.75;;;16.90;99.90;;;;;;5040333;28;20023;-40
2021/08/26 08:46:58;;;;;;;4.65;1.77;;;16.90;99.90;;;;;;5042157;28;20025;-41
2021/08/26 08:49:27;;;;;;;3.50;1.60;;;17.00;99.90;;;;;;5041445;28;20112;-38
2021/08/26 08:51:54;;;;;;;4.88;1.67;;;17.10;99.90;;;;;;5038728;28;20067;-36
2021/08/26 08:54:21;;;;;;;4.20;1.73;;;17.10;99.90;;;;;;5029309;28;20071;-42
2021/08/26 08:56:47;;;;;;;3.40;1.40;;;17.30;99.90;;;;;;5029101;28;20017;-43
2021/08/26 08:59:12;;;;;;;4.90;1.83;;;17.40;99.90;;;;;;5029483;28;20037;-43
2021/08/26 09:01:38;;;;;;;5.13;1.83;;;17.50;99.90;;;;;;5029769;28;20563;-41
2021/08/26 09:04:09;;;;;;;7.40;2.28;;;17.60;99.90;;;;;;5030527;28;20030;-42
2021/08/26 09:06:39;;;;;;;6.05;2.33;;;17.60;99.90;;;;;;5030062;28;20026;-41
2021/08/26 09:09:06;;;;;;;6.75;2.35;;;17.60;99.90;;;;;;5029437;28;20032;-40
2021/08/26 09:11:32;;;;;;;5.75;2.40;;;17.60;99.90;;;;;;5030477;28;20021;-35
2021/08/26 09:14:19;;;;;;;5.32;2.10;;;17.50;99.90;;;;;;5028625;28;20021;-41
2021/08/26 09:16:49;;;;;;;5.55;2.00;;;17.50;99.90;;;;;;5029711;28;20042;-37
2021/08/26 09:19:23;;;;;;;6.85;2.65;;;17.40;99.90;;;;;;5030424;28;20392;-40
2021/08/26 09:21:50;;;;;;;6.72;2.17;;;17.40;99.90;;;;;;5033768;28;20033;-40
2021/08/26 09:24:19;;;;;;;8.05;2.80;;;17.40;99.90;;;;;;5039337;28;20025;-38
2021/08/26 09:26:51;;;;;;;6.22;2.25;;;17.40;99.90;;;;;;5038805;28;20507;-40
2021/08/26 09:29:17;;;;;;;;;;;17.50;99.90;;;;;;5033257;28;20029;-42
2021/08/26 09:31:44;;;;;;;5.55;2.00;;;17.60;99.90;;;;;;5030408;28;19995;-42
2021/08/26 09:34:16;;;;;;;8.90;2.75;;;17.70;99.90;;;;;;5032955;28;20024;-38
2021/08/26 09:36:47;;;;;;;4.72;2.03;;;17.80;99.90;;;;;;5029020;28;20370;-43
2021/08/26 09:39:18;;;;;;;6.70;2.53;;;18.00;99.90;;;;;;5028868;28;20450;-38
2021/08/26 09:42:04;;;;;;;5.25;2.05;;;18.10;99.90;;;;;;5032336;28;20031;-43
2021/08/26 09:44:31;;;;;;;6.55;2.30;;;18.10;99.90;;;;;;5035651;28;20035;-39
2021/08/26 09:47:00;;;;;;;8.32;2.50;;;18.10;99.90;;;;;;5037967;28;20108;-39
2021/08/26 09:49:28;;;;;;;5.15;2.08;;;18.00;99.90;;;;;;5034431;28;20043;-38
2021/08/26 09:52:05;;;;;;;8.15;2.95;;;17.90;99.90;;;;;;5039573;28;20026;-42
2021/08/26 09:54:50;;;;;;;7.95;3.00;;;17.80;99.90;;;;;;5035575;28;20045;-41
2021/08/26 09:57:24;;;;;;;6.38;2.35;;;17.80;99.90;;;;;;5035473;28;20087;-43
2021/08/26 09:59:52;;;;;;;8.00;2.40;;;17.80;99.90;;;;;;5038784;28;20056;-42
2021/08/26 10:02:19;;;;;;;7.53;2.30;;;17.90;99.90;;;;;;5039997;28;20440;-40
2021/08/26 10:04:45;;;;;;;7.75;2.30;;;18.00;99.90;;;;;;5037946;28;20109;-40
2021/08/26 10:07:27;;;;;;;4.45;1.80;;;18.10;99.90;;;;;;5039797;28;20025;-41
2021/08/26 10:09:53;;;;;;;4.93;1.90;;;18.30;99.90;;;;;;5037885;28;20063;-39
2021/08/26 10:12:19;;;;;;;6.35;1.90;;;18.50;99.90;;;;;;5040857;28;20464;-40
2021/08/26 10:14:50;;;;;;;4.95;1.98;;;18.60;99.90;;;;;;5039475;28;20043;-40
2021/08/26 10:17:17;;;;;;;7.13;2.28;;;18.80;99.90;;;;;;5039346;28;20473;-42
2021/08/26 10:19:43;;;;;;;6.38;2.30;;;19.00;99.90;;;;;;5038733;28;20068;-42
2021/08/26 10:22:10;;;;;;;7.95;2.50;;;19.10;99.90;;;;;;5029503;28;20028;-42
2021/08/26 10:24:37;;;;;;;5.80;2.20;;;19.00;99.90;;;;;;5029186;28;20113;-40
2021/08/26 10:27:27;;;;;;;7.00;2.20;;;19.00;99.90;;;;;;5028867;28;20477;-41
2021/08/26 10:29:52;;;;;;;5.10;1.73;;;19.00;99.90;;;;;;5009477;28;20500;-41
2021/08/26 10:32:26;;;;;;;5.82;2.30;;;18.90;99.90;;;;;;5024940;28;20021;-37
2021/08/26 10:35:13;;;;;;;5.88;2.10;;;18.80;99.90;;;;;;5008826;28;20052;-40
2021/08/26 10:37:47;;;;;;;7.10;1.95;;;18.70;99.90;;;;;;5029538;28;20013;-37
2021/08/26 10:40:37;;;;;;;7.03;2.38;;;18.70;99.90;;;;;;5046939;28;20037;-40
2021/08/26 10:43:07;;;;;;;6.43;2.33;;;18.70;99.90;;;;;;5032203;28;20153;-41
2021/08/26 10:45:49;;;;;;;11.00;3.00;;;18.70;99.90;;;;;;5039623;28;20040;-40
2021/08/26 10:48:23;;;;;;;6.90;2.42;;;18.70;99.90;;;;;;5040820;28;20009;-40
2021/08/26 10:51:16;;;;;;;10.38;3.03;;;18.80;99.90;;;;;;5037897;28;20021;-40
2021/08/26 10:53:45;;;;;;;8.35;2.95;;;18.90;99.90;;;;;;5027379;28;20042;-41
2021/08/26 10:56:29;;;;;;;9.00;2.95;;;19.00;99.90;;;;;;5031744;28;20096;-39
2021/08/26 10:59:02;;;;;;;11.43;3.08;;;19.00;99.90;;;;;;5030643;28;20079;-38
2021/08/26 11:01:34;;;;;;;11.82;3.15;;;19.00;99.90;;;;;;5032487;28;20116;-38
2021/08/26 11:04:02;;;;;;;8.95;3.03;;;19.10;99.90;;;;;;5031109;28;20088;-39
2021/08/26 11:06:28;;;;;;;7.60;2.83;;;19.00;99.90;;;;;;5031508;28;20021;-38
2021/08/26 11:09:14;;;;;;;11.10;3.30;;;19.00;99.90;;;;;;5032711;28;20099;-39
2021/08/26 11:11:45;;;;;;;10.25;3.35;;;19.00;99.90;;;;;;5032602;28;20045;-40
2021/08/26 11:14:23;;;;;;;9.00;3.35;;;19.00;99.90;;;;;;5031974;28;20014;-39
2021/08/26 11:16:51;;;;;;;12.30;3.13;;;18.90;99.90;;;;;;5032213;28;20041;-37
2021/08/26 11:19:16;;;;;;;8.32;3.03;;;19.00;99.90;;;;;;5031942;28;20576;-40
2021/08/26 11:21:42;;;;;;;5.53;2.40;;;19.20;99.90;;;;;;5032171;28;20100;-36
2021/08/26 11:24:10;;;;;;;8.40;2.70;;;19.40;99.90;;;;;;5031777;28;20469;-39
2021/08/26 11:27:00;;;;;;;12.60;3.72;;;19.70;99.90;;;;;;5031529;28;20484;-40
2021/08/26 11:29:32;;;;;;;10.85;3.75;;;20.00;98.90;;;;;;5032299;28;20049;-40
2021/08/26 11:32:02;;;;;;;10.13;3.28;;;20.00;99.00;;;;;;5050086;28;20033;-40
2021/08/26 11:34:38;;;;;;;13.77;3.47;;;20.00;98.70;;;;;;5034326;28;20402;-39
2021/08/26 11:37:04;;;;;;;9.13;3.40;;;19.90;98.60;;;;;;5031768;28;20026;-40
2021/08/26 11:39:32;;;;;;;11.02;3.50;;;19.80;98.80;;;;;;5033028;28;20522;-41
2021/08/26 11:41:59;;;;;;;9.50;3.60;;;19.90;99.00;;;;;;5040603;28;20100;-38
2021/08/26 11:44:27;;;;;;;10.63;3.40;;;19.90;98.10;;;;;;5033181;28;20064;-38
2021/08/26 11:46:53;;;;;;;10.75;3.80;;;19.90;98.20;;;;;;5033559;28;20018;-40
2021/08/26 11:49:42;;;;;;;7.57;3.30;;;20.00;98.20;;;;;;5030931;28;20480;-37
2021/08/26 11:52:19;;;;;;;9.52;3.45;;;20.10;98.10;;;;;;5035673;28;20477;-40
2021/08/26 11:54:54;;;;;;;15.93;3.95;;;20.20;98.20;;;;;;5040036;28;20111;-37
2021/08/26 11:57:22;;;;;;;11.48;3.47;;;20.30;98.20;;;;;;5039510;28;20029;-41
2021/08/26 11:59:48;;;;;;;8.65;3.20;;;20.40;98.30;;;;;;5037278;28;20017;-38
2021/08/26 12:02:20;;;;;;;10.25;3.65;;;20.50;98.20;;;;;;5031284;28;20033;-38
2021/08/26 12:05:00;;;;;;;10.15;3.97;;;20.60;97.50;;;;;;5039050;28;20033;-40
2021/08/26 12:07:35;;;;;;;14.35;4.32;;;20.50;97.30;;;;;;5042872;28;20127;-38
2021/08/26 12:10:08;;;;;;;10.38;3.65;;;20.50;97.10;;;;;;5037787;28;20033;-41
2021/08/26 12:12:34;;;;;;;10.68;3.83;;;20.30;97.70;;;;;;5030434;28;20026;-36
2021/08/26 12:15:00;;;;;;;11.77;3.30;;;20.40;98.00;;;;;;5030553;28;20045;-40
2021/08/26 12:17:26;;;;;;;13.30;4.22;;;20.50;98.20;;;;;;5030508;28;20021;-39
2021/08/26 12:19:56;;;;;;;9.60;3.83;;;20.60;97.60;;;;;;5030070;28;20045;-38
2021/08/26 12:22:26;;;;;;;10.70;3.90;;;20.60;97.70;;;;;;5031658;28;20032;-39
2021/08/26 12:25:00;;;;;;;11.18;4.15;;;20.60;98.00;;;;;;5029734;28;20120;-41
2021/08/26 12:27:29;;;;;;;8.80;3.47;;;20.70;97.80;;;;;;5031522;28;20086;-41
2021/08/26 12:29:55;;;;;;;11.35;4.15;;;20.60;97.90;;;;;;5029944;28;20048;-38
2021/08/26 12:32:33;;;;;;;12.85;4.57;;;20.60;97.90;;;;;;5031036;28;20017;-39
2021/08/26 12:35:39;;;;;;;17.42;4.72;;;20.60;98.00;;;;;;5030453;28;20472;-35
2021/08/26 12:38:04;;;;;;;12.40;4.25;;;20.50;98.10;;;;;;5026996;28;20061;-39
2021/08/26 12:40:48;;;;;;;12.38;4.30;;;20.40;97.60;;;;;;5036816;28;20068;-37
2021/08/26 12:43:14;;;;;;;12.07;3.83;;;20.20;98.00;;;;;;5030914;28;20033;-36
2021/08/26 12:45:40;;;;;;;13.30;3.97;;;20.20;98.40;;;;;;5029597;28;20108;-38
2021/08/26 12:48:25;;;;;;;12.23;3.70;;;20.10;98.30;;;;;;5029431;28;20126;-37
2021/08/26 12:51:04;;;;;;;8.57;3.10;;;20.10;98.30;;;;;;5027849;28;20097;-34
2021/08/26 12:53:29;;;;;;;10.02;3.63;;;20.20;97.50;;;;;;5035299;28;20037;-37
2021/08/26 12:56:31;;;;;;;12.00;4.00;;;20.20;97.80;;;;;;5040014;28;20028;-38
2021/08/26 12:59:16;;;;;;;10.50;3.63;;;20.20;97.70;;;;;;5034550;28;20501;-36